Mont Saint Michel — FNMT — position and weather

sailwx.info

Track history (hours):
 
Tides and Currents Weather Stations Pressure Air Temp Water Temp Dewpoint Dewpoint Depression Visibility Wind Speed Wind Dir Waves Ship Positions

Mont Saint Michel

Last reported at 2019-Jun-16 01:00 UTC. Time now 2019-Jun-16 01:26 UTC.
Position N 50°03' W 000°36'.

Length 173 m; beam 29 m.

Type: Ship. MMSI: 227023100.

Date/timePositionNaut miles runAvg speedWind from/ knotsBaromVisibWave heightAir tempDewpointWater temp
2019-Jun-16 01:00N 50°03' W 000°36'611.2
2019-Jun-16 00:30N 49°57' W 000°34'611.2
2019-Jun-16 00:00N 49°52' W 000°32'611.4
2019-Jun-15 23:30N 49°47' W 000°28'611.2
2019-Jun-15 23:00N 49°41' W 000°26'611.2
2019-Jun-15 22:30N 49°36' W 000°23'611.6
2019-Jun-15 22:00N 49°30' W 000°20'611.7
2019-Jun-15 21:30N 49°25' W 000°17'612.2
2019-Jun-15 21:00N 49°19' W 000°15'2 3.5
2019-Jun-15 20:30N 49°17' W 000°15'0 0.0
2019-Jun-15 20:00N 49°17' W 000°15'0 0.0
2019-Jun-15 19:31N 49°17' W 000°15'3 6.6
2019-Jun-15 19:00N 49°21' W 000°14'918.6
2019-Jun-15 18:30N 49°30' W 000°18'816.8
2019-Jun-15 18:00N 49°37' W 000°23'816.7
2019-Jun-15 17:30N 49°45' W 000°29'1019.2
2019-Jun-15 17:00N 49°54' W 000°34'1019.3
2019-Jun-15 16:30N 50°03' W 000°39'1019.6
2019-Jun-15 16:00N 50°12' W 000°44'1020.8
2019-Jun-15 15:30N 50°22' W 000°50'1020.4
2019-Jun-15 15:00N 50°32' W 000°55'1019.6
2019-Jun-15 14:30N 50°41' W 000°58'816.5
2019-Jun-15 14:00N 50°47' W 001°07'1 2.7
2019-Jun-15 13:30N 50°49' W 001°06'0 0.0
2019-Jun-15 13:00N 50°49' W 001°06'0 0.0
2019-Jun-15 12:30N 50°49' W 001°06'0 0.1
2019-Jun-15 12:01N 50°49' W 001°06'4 7.8
2019-Jun-15 11:30N 50°45' W 001°05'918.8
2019-Jun-15 11:00N 50°37' W 000°57'1020.1
2019-Jun-15 10:30N 50°28' W 000°50'1019.4
2019-Jun-15 10:00N 50°19' W 000°44'1019.4
2019-Jun-15 09:30N 50°10' W 000°39'1019.4
2019-Jun-15 09:00N 50°01' W 000°34'1019.2
2019-Jun-15 08:30N 49°52' W 000°29'1019.2
2019-Jun-15 08:00N 49°42' W 000°25'1019.3
2019-Jun-15 07:30N 49°33' W 000°21'1019.1
2019-Jun-15 07:00N 49°24' W 000°17'713.3
2019-Jun-15 06:30N 49°17' W 000°15'0 0.0
2019-Jun-15 06:00N 49°17' W 000°15'0 0.0
2019-Jun-15 05:30N 49°17' W 000°15'0 0.0
2019-Jun-15 05:00N 49°17' W 000°15'0 0.3
2019-Jun-15 04:31N 49°17' W 000°15'815.3
2019-Jun-15 04:00N 49°25' W 000°14'917.2
2019-Jun-15 03:30N 49°33' W 000°18'917.5
2019-Jun-15 03:00N 49°41' W 000°24'917.7
2019-Jun-15 02:30N 49°49' W 000°30'917.5
2019-Jun-15 02:00N 49°57' W 000°34'917.4
2019-Jun-15 01:30N 50°05' W 000°39'815.7
2019-Jun-15 01:00N 50°13' W 000°43'815.1
2019-Jun-15 00:30N 50°20' W 000°48'815.6
2019-Jun-15 00:00N 50°27' W 000°52'715.2
2019-Jun-14 23:30N 50°34' W 000°56'815.5
2019-Jun-14 23:00N 50°42' W 001°00'611.7
2019-Jun-14 22:31N 50°46' W 001°06'2 4.9
2019-Jun-14 22:00N 50°49' W 001°06'0 0.0
2019-Jun-14 21:30N 50°49' W 001°06'0 0.0
2019-Jun-14 21:00N 50°49' W 001°06'0 0.0
2019-Jun-14 20:30N 50°49' W 001°06'1 2.3
2019-Jun-14 20:00N 50°48' W 001°07'815.4
2019-Jun-14 19:31N 50°41' W 001°00'1018.9
2019-Jun-14 19:00N 50°32' W 000°55'918.3
2019-Jun-14 18:30N 50°24' W 000°49'918.6
2019-Jun-14 18:00N 50°15' W 000°45'918.1
2019-Jun-14 17:30N 50°07' W 000°40'918.1
2019-Jun-14 17:00N 49°58' W 000°36'918.2
2019-Jun-14 16:31N 49°49' W 000°32'918.3
2019-Jun-14 16:01N 49°41' W 000°27'918.3
2019-Jun-14 15:30N 49°32' W 000°22'917.6
2019-Jun-14 15:01N 49°24' W 000°17'713.4
2019-Jun-14 14:30N 49°17' W 000°15'0 0.1
2019-Jun-14 14:00N 49°17' W 000°15'0 0.0
2019-Jun-14 13:30N 49°17' W 000°15'0 0.0
2019-Jun-14 13:00N 49°17' W 000°15'2 4.8
2019-Jun-14 12:30N 49°20' W 000°14'917.6
2019-Jun-14 12:00N 49°28' W 000°18'918.6
2019-Jun-14 11:30N 49°37' W 000°22'1019.5
2019-Jun-14 11:00N 49°47' W 000°26'1019.5
2019-Jun-14 10:29N 49°56' W 000°31'1019.6
2019-Jun-14 10:00N 50°05' W 000°37'1119.8
2019-Jun-14 09:28N 50°14' W 000°45'1120.2
2019-Jun-14 08:55N 50°24' W 000°53'820.3
2019-Jun-14 08:30N 50°32' W 000°56'1019.6
2019-Jun-14 08:01N 50°42' W 001°00'714.5
2019-Jun-14 07:30N 50°48' W 001°07'1 2.5
2019-Jun-14 07:01N 50°49' W 001°06'0 0.0
2019-Jun-14 06:30N 50°49' W 001°06'0 0.0
2019-Jun-14 06:00N 50°49' W 001°06'0 0.2
2019-Jun-14 05:30N 50°49' W 001°06'4 8.6
2019-Jun-14 05:00N 50°44' W 001°04'815.0
2019-Jun-14 04:30N 50°39' W 000°56'612.5
2019-Jun-14 04:00N 50°33' W 000°52'510.6
2019-Jun-14 03:30N 50°28' W 000°50'611.3
2019-Jun-14 02:59N 50°23' W 000°47'611.4
2019-Jun-14 02:30N 50°17' W 000°44'611.5
2019-Jun-14 02:00N 50°12' W 000°42'611.6
2019-Jun-14 01:29N 50°06' W 000°40'611.8
2019-Jun-14 01:00N 50°01' W 000°37'611.7
2019-Jun-14 00:30N 49°55' W 000°34'611.8
2019-Jun-14 00:00N 49°49' W 000°31'611.8
2019-Jun-13 23:30N 49°44' W 000°28'611.6
2019-Jun-13 23:00N 49°38' W 000°25'611.5
2019-Jun-13 22:30N 49°33' W 000°22'611.7
2019-Jun-13 22:00N 49°28' W 000°19'612.0
2019-Jun-13 21:30N 49°22' W 000°15'5 9.6
2019-Jun-13 21:00N 49°17' W 000°15'0 0.0
2019-Jun-13 20:30N 49°17' W 000°15'0 0.0
2019-Jun-13 20:00N 49°17' W 000°15'0 0.0
2019-Jun-13 19:30N 49°17' W 000°15'713.5
2019-Jun-13 19:00N 49°24' W 000°16'1020.8
2019-Jun-13 18:30N 49°34' W 000°21'1020.9
2019-Jun-13 18:00N 49°44' W 000°26'1020.8
2019-Jun-13 17:30N 49°54' W 000°30'1020.8
2019-Jun-13 17:00N 50°04' W 000°34'1020.5
2019-Jun-13 16:30N 50°14' W 000°39'1020.6
2019-Jun-13 16:00N 50°23' W 000°47'1020.3
2019-Jun-13 15:30N 50°32' W 000°54'1019.2
2019-Jun-13 15:00N 50°41' W 000°58'816.7
2019-Jun-13 14:30N 50°48' W 001°07'1 2.5
2019-Jun-13 14:00N 50°49' W 001°06'0 0.0
2019-Jun-13 13:30N 50°49' W 001°06'0 0.0
2019-Jun-13 13:00N 50°49' W 001°06'0 0.0
2019-Jun-13 12:30N 50°49' W 001°06'1 1.6
2019-Jun-13 12:00N 50°48' W 001°07'713.6
2019-Jun-13 11:31N 50°43' W 001°00'918.8
2019-Jun-13 11:01N 50°34' W 000°56'918.7
2019-Jun-13 10:31N 50°26' W 000°48'1019.2
2019-Jun-13 10:00N 50°17' W 000°42'1019.6
2019-Jun-13 09:30N 50°08' W 000°37'1019.6
2019-Jun-13 09:00N 49°59' W 000°32'1019.6
2019-Jun-13 08:30N 49°49' W 000°27'1019.4
2019-Jun-13 08:01N 49°40' W 000°23'1019.2
2019-Jun-13 07:31N 49°31' W 000°19'919.0
2019-Jun-13 07:01N 49°22' W 000°15'4 8.8
2019-Jun-13 06:30N 49°17' W 000°15'0 0.0
2019-Jun-13 06:00N 49°17' W 000°15'0 0.0
2019-Jun-13 05:30N 49°17' W 000°15'0 0.0
2019-Jun-13 05:00N 49°17' W 000°15'0 0.3
2019-Jun-13 04:30N 49°17' W 000°15'714.1
2019-Jun-13 04:00N 49°24' W 000°14'815.7
2019-Jun-13 03:31N 49°32' W 000°18'815.4
2019-Jun-13 03:01N 49°39' W 000°22'715.0
2019-Jun-13 02:31N 49°46' W 000°27'714.8
2019-Jun-13 02:00N 49°53' W 000°31'714.3
2019-Jun-13 01:31N 49°59' W 000°35'714.3
2019-Jun-13 01:01N 50°06' W 000°39'714.5
2019-Jun-13 00:30N 50°13' W 000°43'812.2
2019-Jun-12 23:50N 50°20' W 000°48'411.6
2019-Jun-12 23:30N 50°24' W 000°50'611.5
2019-Jun-12 23:00N 50°29' W 000°53'611.4
2019-Jun-12 22:30N 50°34' W 000°56'613.0
2019-Jun-12 22:01N 50°40' W 001°00'713.5
2019-Jun-12 21:30N 50°46' W 001°06'2 4.6
2019-Jun-12 21:01N 50°49' W 001°06'0 0.0
2019-Jun-12 20:31N 50°49' W 001°06'0 0.0
2019-Jun-12 20:01N 50°49' W 001°06'0 0.0
2019-Jun-12 19:31N 50°49' W 001°06'0 0.0
2019-Jun-12 19:01N 50°49' W 001°06'0 0.0
2019-Jun-12 18:31N 50°49' W 001°06'0 0.2
2019-Jun-12 18:01N 50°49' W 001°06'5 9.4
2019-Jun-12 17:31N 50°44' W 001°04'917.8
2019-Jun-12 17:01N 50°36' W 000°58'918.7
2019-Jun-12 16:31N 50°27' W 000°54'1118.6
2019-Jun-12 15:57N 50°18' W 000°47'819.2
2019-Jun-12 15:30N 50°10' W 000°43'1019.8
2019-Jun-12 15:01N 50°00' W 000°38'1020.0
2019-Jun-12 14:31N 49°51' W 000°33'1020.0
2019-Jun-12 14:01N 49°41' W 000°28'1020.1
2019-Jun-12 13:31N 49°32' W 000°23'1020.2
2019-Jun-12 13:01N 49°23' W 000°16'611.2
2019-Jun-12 12:31N 49°17' W 000°15'0 0.0
2019-Jun-12 12:01N 49°17' W 000°15'0 0.0
2019-Jun-12 11:31N 49°17' W 000°15'0 0.0
2019-Jun-12 11:01N 49°17' W 000°15'0 0.0
2019-Jun-12 10:31N 49°17' W 000°15'0 0.0
2019-Jun-12 10:01N 49°17' W 000°15'0 0.0
2019-Jun-12 09:31N 49°17' W 000°15'0 0.0
2019-Jun-12 09:01N 49°17' W 000°15'0 0.0
2019-Jun-12 08:31N 49°17' W 000°15'0 0.0
2019-Jun-12 08:01N 49°17' W 000°15'0 0.0
2019-Jun-12 07:30N 49°17' W 000°15'0 0.0
2019-Jun-12 07:01N 49°17' W 000°15'0 0.0
2019-Jun-12 06:31N 49°17' W 000°15'0 0.0
2019-Jun-12 06:01N 49°17' W 000°15'0 0.0
2019-Jun-12 05:30N 49°17' W 000°15'3 6.9
2019-Jun-12 05:00N 49°21' W 000°14'714.7
2019-Jun-12 04:30N 49°28' W 000°18'815.2
2019-Jun-12 04:00N 49°34' W 000°24'815.7
2019-Jun-12 03:30N 49°42' W 000°27'816.2
2019-Jun-12 03:00N 49°50' W 000°28'1515.3
2019-Jun-12 02:00N 50°05' W 000°36'612.6
2019-Jun-12 01:30N 50°10' W 000°41'612.1
2019-Jun-12 01:00N 50°15' W 000°45'612.0
2019-Jun-12 00:30N 50°21' W 000°48'611.9
2019-Jun-12 00:00N 50°27' W 000°51'611.9
2019-Jun-11 23:31N 50°32' W 000°54'612.2
2019-Jun-11 23:01N 50°38' W 000°57'714.0
2019-Jun-11 22:30N 50°44' W 001°03'510.4
2019-Jun-11 22:00N 50°49' W 001°06'0 0.6
2019-Jun-11 21:30N 50°49' W 001°06'0 0.0
2019-Jun-11 21:00N 50°49' W 001°06'0 0.0
2019-Jun-11 20:30N 50°49' W 001°06'1 1.8
2019-Jun-11 20:00N 50°48' W 001°07'815.3
2019-Jun-11 19:30N 50°41' W 001°01'1020.0
2019-Jun-11 19:00N 50°32' W 000°57'1020.7
2019-Jun-11 18:30N 50°22' W 000°52'1020.8
2019-Jun-11 18:01N 50°12' W 000°46'1020.7
2019-Jun-11 17:30N 50°03' W 000°38'1020.3
2019-Jun-11 17:00N 49°54' W 000°32'1020.2
2019-Jun-11 16:30N 49°44' W 000°27'1020.1
2019-Jun-11 16:00N 49°35' W 000°21'1020.1
2019-Jun-11 15:30N 49°25' W 000°16'816.2
2019-Jun-11 15:00N 49°17' W 000°15'0 0.0
2019-Jun-11 14:30N 49°17' W 000°15'0 0.0
2019-Jun-11 14:00N 49°17' W 000°15'0 0.0
2019-Jun-11 13:30N 49°17' W 000°15'3 6.1
2019-Jun-11 13:01N 49°20' W 000°13'1 2.3
2019-Jun-11 12:31N 49°21' W 000°14'1019.6
2019-Jun-11 12:01N 49°30' W 000°21'1020.2
2019-Jun-11 11:30N 49°39' W 000°27'1020.5
2019-Jun-11 11:00N 49°49' W 000°31'1020.2
2019-Jun-11 10:30N 49°59' W 000°36'1020.1
2019-Jun-11 10:00N 50°08' W 000°41'1320.3
2019-Jun-11 09:23N 50°20' W 000°48'920.5
2019-Jun-11 08:57N 50°28' W 000°53'818.6
2019-Jun-11 08:30N 50°36' W 000°57'917.9
2019-Jun-11 08:00N 50°44' W 001°04'5 9.4
2019-Jun-11 07:30N 50°49' W 001°06'0 0.0
2019-Jun-11 07:00N 50°49' W 001°06'0 0.0
2019-Jun-11 06:30N 50°49' W 001°06'0 0.0
2019-Jun-11 06:00N 50°49' W 001°06'0 0.2
2019-Jun-11 05:30N 50°49' W 001°06'510.1
2019-Jun-11 05:00N 50°44' W 001°04'816.2
2019-Jun-11 04:30N 50°37' W 000°58'815.5
2019-Jun-11 04:00N 50°29' W 000°53'815.1
2019-Jun-11 03:30N 50°22' W 000°48'1113.6
2019-Jun-11 02:40N 50°12' W 000°42'211.1
2019-Jun-11 02:28N 50°10' W 000°41'510.9
2019-Jun-11 02:00N 50°05' W 000°38'510.8
2019-Jun-11 01:30N 49°60' W 000°35'510.9
2019-Jun-11 01:00N 49°55' W 000°33'510.9
2019-Jun-11 00:30N 49°50' W 000°31'611.0
2019-Jun-11 00:00N 49°44' W 000°28'611.3
2019-Jun-10 23:30N 49°39' W 000°26'611.4
2019-Jun-10 23:00N 49°34' W 000°21'611.8
2019-Jun-10 22:30N 49°28' W 000°19'612.0
2019-Jun-10 22:00N 49°23' W 000°16'510.4
2019-Jun-10 21:30N 49°17' W 000°15'0 0.2
2019-Jun-10 21:00N 49°17' W 000°15'0 0.0
2019-Jun-10 20:30N 49°17' W 000°15'0 0.0
2019-Jun-10 20:00N 49°17' W 000°15'0 0.0
2019-Jun-10 19:30N 49°17' W 000°15'3 5.7
2019-Jun-10 19:00N 49°20' W 000°14'918.3
2019-Jun-10 18:30N 49°29' W 000°19'918.5
2019-Jun-10 18:00N 49°37' W 000°24'918.6
2019-Jun-10 17:30N 49°46' W 000°30'918.9
2019-Jun-10 17:00N 49°55' W 000°36'1020.5
2019-Jun-10 16:30N 50°05' W 000°40'1620.8
2019-Jun-10 15:45N 50°20' W 000°46'521.1
2019-Jun-10 15:30N 50°24' W 000°49'1020.8
2019-Jun-10 15:00N 50°34' W 000°56'918.7
2019-Jun-10 14:30N 50°43' W 001°02'713.5
2019-Jun-10 14:01N 50°49' W 001°07'1 1.2
2019-Jun-10 13:31N 50°49' W 001°06'0 0.0
2019-Jun-10 13:01N 50°49' W 001°06'0 0.0
2019-Jun-10 12:31N 50°49' W 001°06'2 4.2
2019-Jun-10 12:00N 50°47' W 001°06'714.7
2019-Jun-10 11:30N 50°41' W 000°59'918.2
2019-Jun-10 11:00N 50°32' W 000°56'918.7
2019-Jun-10 10:30N 50°23' W 000°51'1119.2
2019-Jun-10 09:56N 50°13' W 000°43'819.3
2019-Jun-10 09:30N 50°06' W 000°38'1019.5
2019-Jun-10 09:00N 49°56' W 000°33'1019.4
2019-Jun-10 08:30N 49°47' W 000°30'1019.5
2019-Jun-10 08:00N 49°38' W 000°25'1021.0
2019-Jun-10 07:31N 49°28' W 000°19'1019.6
2019-Jun-10 07:00N 49°19' W 000°15'1 2.8
2019-Jun-10 06:30N 49°17' W 000°15'0 0.0
2019-Jun-10 06:01N 49°17' W 000°15'0 0.0
2019-Jun-10 05:30N 49°17' W 000°15'0 0.0
2019-Jun-10 05:01N 49°17' W 000°15'0 0.2
2019-Jun-10 04:30N 49°17' W 000°15'714.7
2019-Jun-10 04:01N 49°25' W 000°16'612.3
2019-Jun-10 03:30N 49°30' W 000°21'612.2
2019-Jun-10 03:00N 49°36' W 000°24'816.4
2019-Jun-10 02:31N 49°43' W 000°29'917.1
2019-Jun-10 02:00N 49°52' W 000°32'917.4
2019-Jun-10 01:30N 49°60' W 000°37'917.4
2019-Jun-10 01:00N 50°08' W 000°42'816.5
2019-Jun-10 00:30N 50°16' W 000°45'816.7
2019-Jun-10 00:00N 50°24' W 000°49'917.2
2019-Jun-09 23:30N 50°32' W 000°54'714.1
2019-Jun-09 23:01N 50°38' W 000°59'713.5
2019-Jun-09 22:30N 50°44' W 001°04'5 9.5
2019-Jun-09 22:00N 50°49' W 001°06'0 0.0
2019-Jun-09 21:30N 50°49' W 001°06'0 0.0
2019-Jun-09 21:00N 50°49' W 001°06'0 0.0
2019-Jun-09 20:30N 50°49' W 001°06'0 0.9
2019-Jun-09 20:00N 50°49' W 001°07'611.1
2019-Jun-09 19:30N 50°44' W 001°03'917.2
2019-Jun-09 19:00N 50°36' W 000°57'918.8
2019-Jun-09 18:31N 50°27' W 000°53'918.5
2019-Jun-09 18:00N 50°18' W 000°49'1020.1
2019-Jun-09 17:30N 50°09' W 000°43'1121.1
2019-Jun-09 17:00N 49°59' W 000°36'1020.9
2019-Jun-09 16:31N 49°49' W 000°31'1020.5
2019-Jun-09 16:00N 49°39' W 000°26'1020.2
2019-Jun-09 15:30N 49°30' W 000°19'1019.9
2019-Jun-09 15:01N 49°21' W 000°15'4 7.0
2019-Jun-09 14:30N 49°17' W 000°15'0 0.0
2019-Jun-09 14:00N 49°17' W 000°15'0 0.0
2019-Jun-09 13:30N 49°17' W 000°15'0 0.0
2019-Jun-09 13:00N 49°17' W 000°15'3 6.2
2019-Jun-09 12:30N 49°20' W 000°14'1019.6
2019-Jun-09 12:00N 49°30' W 000°19'917.8
2019-Jun-09 11:30N 49°38' W 000°25'918.9
2019-Jun-09 11:00N 49°47' W 000°29'1020.2
2019-Jun-09 10:30N 49°56' W 000°35'1020.8
2019-Jun-09 10:00N 50°06' W 000°41'1121.0
2019-Jun-09 09:30N 50°16' W 000°47'1121.0
2019-Jun-09 09:00N 50°26' W 000°51'1020.3
2019-Jun-09 08:30N 50°35' W 000°57'918.0
2019-Jun-09 08:00N 50°44' W 001°03'611.0
2019-Jun-09 07:30N 50°49' W 001°06'0 0.2
2019-Jun-09 07:01N 50°49' W 001°06'0 0.0
2019-Jun-09 06:30N 50°49' W 001°06'0 0.0
2019-Jun-09 06:01N 50°49' W 001°06'1 1.6
2019-Jun-09 05:30N 50°48' W 001°07'611.8
2019-Jun-09 05:00N 50°43' W 001°03'1414.3
2019-Jun-09 04:00N 50°29' W 000°56'612.2
2019-Jun-09 03:30N 50°23' W 000°53'814.4
2019-Jun-09 02:55N 50°17' W 000°46'614.6
2019-Jun-09 02:30N 50°11' W 000°43'714.5
2019-Jun-09 02:00N 50°04' W 000°40'714.1
2019-Jun-09 01:30N 49°57' W 000°36'714.2
2019-Jun-09 01:01N 49°51' W 000°32'714.2
2019-Jun-09 00:30N 49°44' W 000°28'714.3
2019-Jun-09 00:01N 49°38' W 000°24'715.0
2019-Jun-08 23:30N 49°31' W 000°19'815.0
2019-Jun-08 23:00N 49°23' W 000°16'612.2
2019-Jun-08 22:30N 49°17' W 000°15'0 0.2
2019-Jun-08 22:00N 49°17' W 000°15'0 0.0
2019-Jun-08 21:30N 49°17' W 000°15'0 0.0
2019-Jun-08 21:00N 49°17' W 000°15'0 0.2
2019-Jun-08 20:30N 49°17' W 000°15'815.4
2019-Jun-08 20:00N 49°25' W 000°17'1020.1
2019-Jun-08 19:31N 49°34' W 000°23'1019.8
2019-Jun-08 19:01N 49°43' W 000°28'1019.6
2019-Jun-08 18:31N 49°52' W 000°34'1019.5
2019-Jun-08 18:01N 50°02' W 000°39'1019.7
2019-Jun-08 17:29N 50°12' W 000°43'1319.0
2019-Jun-08 16:49N 50°23' W 000°50'617.7
2019-Jun-08 16:30N 50°29' W 000°53'917.3
2019-Jun-08 16:00N 50°37' W 000°58'918.2
2019-Jun-08 15:31N 50°45' W 001°05'4 8.2
2019-Jun-08 15:00N 50°49' W 001°06'0 0.0
2019-Jun-08 14:30N 50°49' W 001°06'0 0.0
2019-Jun-08 14:00N 50°49' W 001°06'0 1.0
2019-Jun-08 13:30N 50°49' W 001°07'714.2
2019-Jun-08 13:01N 50°42' W 001°02'1019.1
2019-Jun-08 12:30N 50°34' W 000°55'918.3
2019-Jun-08 12:00N 50°25' W 000°49'1018.4
2019-Jun-08 11:28N 50°16' W 000°43'818.1
2019-Jun-08 11:00N 50°09' W 000°38'918.0
2019-Jun-08 10:30N 50°00' W 000°32'713.2
2019-Jun-08 10:01N 49°54' W 000°30'2 3.3
2019-Jun-08 09:31N 49°54' W 000°32'612.0
2019-Jun-08 09:00N 49°48' W 000°30'1019.6
2019-Jun-08 08:30N 49°39' W 000°25'1019.8
2019-Jun-08 08:00N 49°29' W 000°19'917.1
2019-Jun-08 07:30N 49°21' W 000°15'4 7.7
2019-Jun-08 07:00N 49°17' W 000°15'0 0.0
2019-Jun-08 06:31N 49°17' W 000°15'0 0.0
2019-Jun-08 06:01N 49°17' W 000°15'0 0.0
2019-Jun-08 05:31N 49°17' W 000°15'0 0.0
2019-Jun-08 05:00N 49°17' W 000°15'0 0.4
2019-Jun-08 04:31N 49°18' W 000°15'714.5
2019-Jun-08 04:00N 49°25' W 000°16'817.0
2019-Jun-08 03:30N 49°33' W 000°20'917.2
2019-Jun-08 03:00N 49°41' W 000°24'917.4
2019-Jun-08 02:30N 49°49' W 000°30'917.5
2019-Jun-08 02:00N 49°57' W 000°36'917.8
2019-Jun-08 01:30N 50°06' W 000°39'1516.4
2019-Jun-08 00:35N 50°20' W 000°46'215.4
2019-Jun-08 00:28N 50°22' W 000°47'816.1
2019-Jun-08 00:00N 50°28' W 000°52'816.0
2019-Jun-07 23:30N 50°36' W 000°57'714.4
2019-Jun-07 23:00N 50°43' W 000°59'713.3
2019-Jun-07 22:30N 50°48' W 001°07'1 2.5
2019-Jun-07 22:00N 50°49' W 001°06'0 0.0
2019-Jun-07 21:30N 50°49' W 001°06'0 0.0
2019-Jun-07 21:00N 50°49' W 001°06'0 0.0
2019-Jun-07 20:30N 50°49' W 001°06'2 3.7
2019-Jun-07 20:00N 50°47' W 001°06'815.6
2019-Jun-07 19:30N 50°41' W 000°58'1019.5
2019-Jun-07 19:00N 50°31' W 000°55'1020.3
2019-Jun-07 18:30N 50°22' W 000°50'1020.8
2019-Jun-07 18:00N 50°12' W 000°45'1121.5
2019-Jun-07 17:30N 50°02' W 000°39'1121.9
2019-Jun-07 17:00N 49°52' W 000°33'1121.8
2019-Jun-07 16:31N 49°42' W 000°27'1121.6
2019-Jun-07 16:01N 49°32' W 000°21'1121.5
2019-Jun-07 15:31N 49°22' W 000°15'4 8.4
2019-Jun-07 15:00N 49°17' W 000°15'0 0.0
2019-Jun-07 14:30N 49°17' W 000°15'0 0.0
2019-Jun-07 14:00N 49°17' W 000°15'0 0.0
2019-Jun-07 13:30N 49°17' W 000°15'0 0.0
2019-Jun-07 13:01N 49°17' W 000°15'1 1.2
2019-Jun-07 12:30N 49°18' W 000°15'918.9
2019-Jun-07 12:00N 49°27' W 000°17'1019.9
2019-Jun-07 11:30N 49°37' W 000°22'1019.9
2019-Jun-07 11:00N 49°46' W 000°27'1020.6
2019-Jun-07 10:30N 49°56' W 000°33'1121.1
2019-Jun-07 10:00N 50°05' W 000°39'1120.9
2019-Jun-07 09:29N 50°15' W 000°46'1020.3
2019-Jun-07 09:00N 50°24' W 000°52'1020.1
2019-Jun-07 08:30N 50°34' W 000°57'918.2
2019-Jun-07 08:01N 50°43' W 000°59'714.5
2019-Jun-07 07:31N 50°48' W 001°07'1 1.7
2019-Jun-07 07:01N 50°49' W 001°06'0 0.0
2019-Jun-07 06:31N 50°49' W 001°06'0 0.0
2019-Jun-07 06:01N 50°49' W 001°06'1 1.7
2019-Jun-07 05:31N 50°48' W 001°07'611.7
2019-Jun-07 05:00N 50°43' W 001°02'815.2
2019-Jun-07 04:30N 50°36' W 000°57'816.7
2019-Jun-07 04:00N 50°28' W 000°53'815.9
2019-Jun-07 03:30N 50°21' W 000°48'816.2
2019-Jun-07 03:00N 50°13' W 000°46'815.6
2019-Jun-07 02:30N 50°06' W 000°42'612.4
2019-Jun-07 02:01N 49°60' W 000°38'612.2
2019-Jun-07 01:30N 49°54' W 000°35'611.9
2019-Jun-07 01:00N 49°49' W 000°31'611.7
2019-Jun-07 00:30N 49°43' W 000°28'611.7
2019-Jun-07 00:00N 49°38' W 000°24'611.7
2019-Jun-06 23:30N 49°33' W 000°20'611.7
2019-Jun-06 23:00N 49°27' W 000°17'611.6
2019-Jun-06 22:31N 49°22' W 000°15'4 8.4
2019-Jun-06 22:00N 49°17' W 000°15'0 0.0
2019-Jun-06 21:30N 49°17' W 000°15'0 0.0
2019-Jun-06 21:01N 49°17' W 000°15'0 0.0
2019-Jun-06 20:31N 49°17' W 000°15'0 0.0
2019-Jun-06 20:00N 49°17' W 000°15'0 0.0
2019-Jun-06 19:31N 49°17' W 000°15'2 4.3
2019-Jun-06 19:01N 49°19' W 000°14'917.7
2019-Jun-06 18:30N 49°28' W 000°18'918.7
2019-Jun-06 18:01N 49°37' W 000°23'918.5
2019-Jun-06 17:31N 49°45' W 000°28'918.2
2019-Jun-06 17:01N 49°54' W 000°33'918.0
2019-Jun-06 16:30N 50°02' W 000°38'918.1
2019-Jun-06 16:01N 50°11' W 000°43'918.3
2019-Jun-06 15:30N 50°19' W 000°48'1020.1
2019-Jun-06 15:00N 50°29' W 000°53'1019.8
2019-Jun-06 14:30N 50°38' W 000°59'918.0
2019-Jun-06 14:01N 50°46' W 001°06'3 5.3
2019-Jun-06 13:30N 50°49' W 001°06'0 0.0
2019-Jun-06 13:01N 50°49' W 001°06'0 0.0
2019-Jun-06 12:30N 50°49' W 001°06'0 0.1
2019-Jun-06 12:01N 50°49' W 001°06'510.8
2019-Jun-06 11:30N 50°44' W 001°03'1020.1
2019-Jun-06 11:00N 50°34' W 000°56'1120.3
2019-Jun-06 10:29N 50°25' W 000°51'1020.3
2019-Jun-06 10:00N 50°15' W 000°46'1020.0
2019-Jun-06 09:30N 50°06' W 000°41'1019.7
2019-Jun-06 09:00N 49°56' W 000°37'1019.5
2019-Jun-06 08:30N 49°47' W 000°33'1019.5
2019-Jun-06 08:00N 49°38' W 000°26'1020.1
2019-Jun-06 07:30N 49°29' W 000°20'1019.7
2019-Jun-06 07:00N 49°20' W 000°14'2 4.9
2019-Jun-06 06:30N 49°17' W 000°15'0 0.0
2019-Jun-06 06:00N 49°17' W 000°15'0 0.0
2019-Jun-06 05:30N 49°17' W 000°15'0 0.0
2019-Jun-06 05:00N 49°17' W 000°15'0 0.1
2019-Jun-06 04:30N 49°17' W 000°15'713.9
2019-Jun-06 04:01N 49°24' W 000°16'815.3
2019-Jun-06 03:31N 49°31' W 000°23'714.8
2019-Jun-06 03:00N 49°37' W 000°29'510.7
2019-Jun-06 02:30N 49°42' W 000°30'510.7
2019-Jun-06 02:00N 49°48' W 000°31'510.8
2019-Jun-06 01:30N 49°53' W 000°33'611.1
2019-Jun-06 01:00N 49°58' W 000°36'  
Track history (hours):
 
Tides and Currents Weather Stations Pressure Air Temp Water Temp Dewpoint Dewpoint Depression Visibility Wind Speed Wind Dir Waves Ship Positions

Mont Saint Michel

Last reported at 2019-Jun-16 01:00 UTC. Time now 2019-Jun-16 01:26 UTC.
Position N 50°03' W 000°36'.

Length 173 m; beam 29 m.

Type: Ship. MMSI: 227023100.

Date/timePositionNaut miles runAvg speedWind from/ knotsBaromVisibWave heightAir tempDewpointWater temp
2019-Jun-16 01:00N 50°03' W 000°36'611.2
2019-Jun-16 00:30N 49°57' W 000°34'611.2
2019-Jun-16 00:00N 49°52' W 000°32'611.4
2019-Jun-15 23:30N 49°47' W 000°28'611.2
2019-Jun-15 23:00N 49°41' W 000°26'611.2
2019-Jun-15 22:30N 49°36' W 000°23'611.6
2019-Jun-15 22:00N 49°30' W 000°20'611.7
2019-Jun-15 21:30N 49°25' W 000°17'612.2
2019-Jun-15 21:00N 49°19' W 000°15'2 3.5
2019-Jun-15 20:30N 49°17' W 000°15'0 0.0
2019-Jun-15 20:00N 49°17' W 000°15'0 0.0
2019-Jun-15 19:31N 49°17' W 000°15'3 6.6
2019-Jun-15 19:00N 49°21' W 000°14'918.6
2019-Jun-15 18:30N 49°30' W 000°18'816.8
2019-Jun-15 18:00N 49°37' W 000°23'816.7
2019-Jun-15 17:30N 49°45' W 000°29'1019.2
2019-Jun-15 17:00N 49°54' W 000°34'1019.3
2019-Jun-15 16:30N 50°03' W 000°39'1019.6
2019-Jun-15 16:00N 50°12' W 000°44'1020.8
2019-Jun-15 15:30N 50°22' W 000°50'1020.4
2019-Jun-15 15:00N 50°32' W 000°55'1019.6
2019-Jun-15 14:30N 50°41' W 000°58'816.5
2019-Jun-15 14:00N 50°47' W 001°07'1 2.7
2019-Jun-15 13:30N 50°49' W 001°06'0 0.0
2019-Jun-15 13:00N 50°49' W 001°06'0 0.0
2019-Jun-15 12:30N 50°49' W 001°06'0 0.1
2019-Jun-15 12:01N 50°49' W 001°06'4 7.8
2019-Jun-15 11:30N 50°45' W 001°05'918.8
2019-Jun-15 11:00N 50°37' W 000°57'1020.1
2019-Jun-15 10:30N 50°28' W 000°50'1019.4
2019-Jun-15 10:00N 50°19' W 000°44'1019.4
2019-Jun-15 09:30N 50°10' W 000°39'1019.4
2019-Jun-15 09:00N 50°01' W 000°34'1019.2
2019-Jun-15 08:30N 49°52' W 000°29'1019.2
2019-Jun-15 08:00N 49°42' W 000°25'1019.3
2019-Jun-15 07:30N 49°33' W 000°21'1019.1
2019-Jun-15 07:00N 49°24' W 000°17'713.3
2019-Jun-15 06:30N 49°17' W 000°15'0 0.0
2019-Jun-15 06:00N 49°17' W 000°15'0 0.0
2019-Jun-15 05:30N 49°17' W 000°15'0 0.0
2019-Jun-15 05:00N 49°17' W 000°15'0 0.3
2019-Jun-15 04:31N 49°17' W 000°15'815.3
2019-Jun-15 04:00N 49°25' W 000°14'917.2
2019-Jun-15 03:30N 49°33' W 000°18'917.5
2019-Jun-15 03:00N 49°41' W 000°24'917.7
2019-Jun-15 02:30N 49°49' W 000°30'917.5
2019-Jun-15 02:00N 49°57' W 000°34'917.4
2019-Jun-15 01:30N 50°05' W 000°39'815.7
2019-Jun-15 01:00N 50°13' W 000°43'815.1
2019-Jun-15 00:30N 50°20' W 000°48'815.6
2019-Jun-15 00:00N 50°27' W 000°52'715.2
2019-Jun-14 23:30N 50°34' W 000°56'815.5
2019-Jun-14 23:00N 50°42' W 001°00'611.7
2019-Jun-14 22:31N 50°46' W 001°06'2 4.9
2019-Jun-14 22:00N 50°49' W 001°06'0 0.0
2019-Jun-14 21:30N 50°49' W 001°06'0 0.0
2019-Jun-14 21:00N 50°49' W 001°06'0 0.0
2019-Jun-14 20:30N 50°49' W 001°06'1 2.3
2019-Jun-14 20:00N 50°48' W 001°07'815.4
2019-Jun-14 19:31N 50°41' W 001°00'1018.9
2019-Jun-14 19:00N 50°32' W 000°55'918.3
2019-Jun-14 18:30N 50°24' W 000°49'918.6
2019-Jun-14 18:00N 50°15' W 000°45'918.1
2019-Jun-14 17:30N 50°07' W 000°40'918.1
2019-Jun-14 17:00N 49°58' W 000°36'918.2
2019-Jun-14 16:31N 49°49' W 000°32'918.3
2019-Jun-14 16:01N 49°41' W 000°27'918.3
2019-Jun-14 15:30N 49°32' W 000°22'917.6
2019-Jun-14 15:01N 49°24' W 000°17'713.4
2019-Jun-14 14:30N 49°17' W 000°15'0 0.1
2019-Jun-14 14:00N 49°17' W 000°15'0 0.0
2019-Jun-14 13:30N 49°17' W 000°15'0 0.0
2019-Jun-14 13:00N 49°17' W 000°15'2 4.8
2019-Jun-14 12:30N 49°20' W 000°14'917.6
2019-Jun-14 12:00N 49°28' W 000°18'918.6
2019-Jun-14 11:30N 49°37' W 000°22'1019.5
2019-Jun-14 11:00N 49°47' W 000°26'1019.5
2019-Jun-14 10:29N 49°56' W 000°31'1019.6
2019-Jun-14 10:00N 50°05' W 000°37'1119.8
2019-Jun-14 09:28N 50°14' W 000°45'1120.2
2019-Jun-14 08:55N 50°24' W 000°53'820.3
2019-Jun-14 08:30N 50°32' W 000°56'1019.6
2019-Jun-14 08:01N 50°42' W 001°00'714.5
2019-Jun-14 07:30N 50°48' W 001°07'1 2.5
2019-Jun-14 07:01N 50°49' W 001°06'0 0.0
2019-Jun-14 06:30N 50°49' W 001°06'0 0.0
2019-Jun-14 06:00N 50°49' W 001°06'0 0.2
2019-Jun-14 05:30N 50°49' W 001°06'4 8.6
2019-Jun-14 05:00N 50°44' W 001°04'815.0
2019-Jun-14 04:30N 50°39' W 000°56'612.5
2019-Jun-14 04:00N 50°33' W 000°52'510.6
2019-Jun-14 03:30N 50°28' W 000°50'611.3
2019-Jun-14 02:59N 50°23' W 000°47'611.4
2019-Jun-14 02:30N 50°17' W 000°44'611.5
2019-Jun-14 02:00N 50°12' W 000°42'611.6
2019-Jun-14 01:29N 50°06' W 000°40'611.8
2019-Jun-14 01:00N 50°01' W 000°37'611.7
2019-Jun-14 00:30N 49°55' W 000°34'611.8
2019-Jun-14 00:00N 49°49' W 000°31'611.8
2019-Jun-13 23:30N 49°44' W 000°28'611.6
2019-Jun-13 23:00N 49°38' W 000°25'611.5
2019-Jun-13 22:30N 49°33' W 000°22'611.7
2019-Jun-13 22:00N 49°28' W 000°19'612.0
2019-Jun-13 21:30N 49°22' W 000°15'5 9.6
2019-Jun-13 21:00N 49°17' W 000°15'0 0.0
2019-Jun-13 20:30N 49°17' W 000°15'0 0.0
2019-Jun-13 20:00N 49°17' W 000°15'0 0.0
2019-Jun-13 19:30N 49°17' W 000°15'713.5
2019-Jun-13 19:00N 49°24' W 000°16'1020.8
2019-Jun-13 18:30N 49°34' W 000°21'1020.9
2019-Jun-13 18:00N 49°44' W 000°26'1020.8
2019-Jun-13 17:30N 49°54' W 000°30'1020.8
2019-Jun-13 17:00N 50°04' W 000°34'1020.5
2019-Jun-13 16:30N 50°14' W 000°39'1020.6
2019-Jun-13 16:00N 50°23' W 000°47'1020.3
2019-Jun-13 15:30N 50°32' W 000°54'1019.2
2019-Jun-13 15:00N 50°41' W 000°58'816.7
2019-Jun-13 14:30N 50°48' W 001°07'1 2.5
2019-Jun-13 14:00N 50°49' W 001°06'0 0.0
2019-Jun-13 13:30N 50°49' W 001°06'0 0.0
2019-Jun-13 13:00N 50°49' W 001°06'0 0.0
2019-Jun-13 12:30N 50°49' W 001°06'1 1.6
2019-Jun-13 12:00N 50°48' W 001°07'713.6
2019-Jun-13 11:31N 50°43' W 001°00'918.8
2019-Jun-13 11:01N 50°34' W 000°56'918.7
2019-Jun-13 10:31N 50°26' W 000°48'1019.2
2019-Jun-13 10:00N 50°17' W 000°42'1019.6
2019-Jun-13 09:30N 50°08' W 000°37'1019.6
2019-Jun-13 09:00N 49°59' W 000°32'1019.6
2019-Jun-13 08:30N 49°49' W 000°27'1019.4
2019-Jun-13 08:01N 49°40' W 000°23'1019.2
2019-Jun-13 07:31N 49°31' W 000°19'919.0
2019-Jun-13 07:01N 49°22' W 000°15'4 8.8
2019-Jun-13 06:30N 49°17' W 000°15'0 0.0
2019-Jun-13 06:00N 49°17' W 000°15'0 0.0
2019-Jun-13 05:30N 49°17' W 000°15'0 0.0
2019-Jun-13 05:00N 49°17' W 000°15'0 0.3
2019-Jun-13 04:30N 49°17' W 000°15'714.1
2019-Jun-13 04:00N 49°24' W 000°14'815.7
2019-Jun-13 03:31N 49°32' W 000°18'815.4
2019-Jun-13 03:01N 49°39' W 000°22'715.0
2019-Jun-13 02:31N 49°46' W 000°27'714.8
2019-Jun-13 02:00N 49°53' W 000°31'714.3
2019-Jun-13 01:31N 49°59' W 000°35'714.3
2019-Jun-13 01:01N 50°06' W 000°39'714.5
2019-Jun-13 00:30N 50°13' W 000°43'812.2
2019-Jun-12 23:50N 50°20' W 000°48'411.6
2019-Jun-12 23:30N 50°24' W 000°50'611.5
2019-Jun-12 23:00N 50°29' W 000°53'611.4
2019-Jun-12 22:30N 50°34' W 000°56'613.0
2019-Jun-12 22:01N 50°40' W 001°00'713.5
2019-Jun-12 21:30N 50°46' W 001°06'2 4.6
2019-Jun-12 21:01N 50°49' W 001°06'0 0.0
2019-Jun-12 20:31N 50°49' W 001°06'0 0.0
2019-Jun-12 20:01N 50°49' W 001°06'0 0.0
2019-Jun-12 19:31N 50°49' W 001°06'0 0.0
2019-Jun-12 19:01N 50°49' W 001°06'0 0.0
2019-Jun-12 18:31N 50°49' W 001°06'0 0.2
2019-Jun-12 18:01N 50°49' W 001°06'5 9.4
2019-Jun-12 17:31N 50°44' W 001°04'917.8
2019-Jun-12 17:01N 50°36' W 000°58'918.7
2019-Jun-12 16:31N 50°27' W 000°54'1118.6
2019-Jun-12 15:57N 50°18' W 000°47'819.2
2019-Jun-12 15:30N 50°10' W 000°43'1019.8
2019-Jun-12 15:01N 50°00' W 000°38'1020.0
2019-Jun-12 14:31N 49°51' W 000°33'1020.0
2019-Jun-12 14:01N 49°41' W 000°28'1020.1
2019-Jun-12 13:31N 49°32' W 000°23'1020.2
2019-Jun-12 13:01N 49°23' W 000°16'611.2
2019-Jun-12 12:31N 49°17' W 000°15'0 0.0
2019-Jun-12 12:01N 49°17' W 000°15'0 0.0
2019-Jun-12 11:31N 49°17' W 000°15'0 0.0
2019-Jun-12 11:01N 49°17' W 000°15'0 0.0
2019-Jun-12 10:31N 49°17' W 000°15'0 0.0
2019-Jun-12 10:01N 49°17' W 000°15'0 0.0
2019-Jun-12 09:31N 49°17' W 000°15'0 0.0
2019-Jun-12 09:01N 49°17' W 000°15'0 0.0
2019-Jun-12 08:31N 49°17' W 000°15'0 0.0
2019-Jun-12 08:01N 49°17' W 000°15'0 0.0
2019-Jun-12 07:30N 49°17' W 000°15'0 0.0
2019-Jun-12 07:01N 49°17' W 000°15'0 0.0
2019-Jun-12 06:31N 49°17' W 000°15'0 0.0
2019-Jun-12 06:01N 49°17' W 000°15'0 0.0
2019-Jun-12 05:30N 49°17' W 000°15'3 6.9
2019-Jun-12 05:00N 49°21' W 000°14'714.7
2019-Jun-12 04:30N 49°28' W 000°18'815.2
2019-Jun-12 04:00N 49°34' W 000°24'815.7
2019-Jun-12 03:30N 49°42' W 000°27'816.2
2019-Jun-12 03:00N 49°50' W 000°28'1515.3
2019-Jun-12 02:00N 50°05' W 000°36'612.6
2019-Jun-12 01:30N 50°10' W 000°41'612.1
2019-Jun-12 01:00N 50°15' W 000°45'612.0
2019-Jun-12 00:30N 50°21' W 000°48'611.9
2019-Jun-12 00:00N 50°27' W 000°51'611.9
2019-Jun-11 23:31N 50°32' W 000°54'612.2
2019-Jun-11 23:01N 50°38' W 000°57'714.0
2019-Jun-11 22:30N 50°44' W 001°03'510.4
2019-Jun-11 22:00N 50°49' W 001°06'0 0.6
2019-Jun-11 21:30N 50°49' W 001°06'0 0.0
2019-Jun-11 21:00N 50°49' W 001°06'0 0.0
2019-Jun-11 20:30N 50°49' W 001°06'1 1.8
2019-Jun-11 20:00N 50°48' W 001°07'815.3
2019-Jun-11 19:30N 50°41' W 001°01'1020.0
2019-Jun-11 19:00N 50°32' W 000°57'1020.7
2019-Jun-11 18:30N 50°22' W 000°52'1020.8
2019-Jun-11 18:01N 50°12' W 000°46'1020.7
2019-Jun-11 17:30N 50°03' W 000°38'1020.3
2019-Jun-11 17:00N 49°54' W 000°32'1020.2
2019-Jun-11 16:30N 49°44' W 000°27'1020.1
2019-Jun-11 16:00N 49°35' W 000°21'1020.1
2019-Jun-11 15:30N 49°25' W 000°16'816.2
2019-Jun-11 15:00N 49°17' W 000°15'0 0.0
2019-Jun-11 14:30N 49°17' W 000°15'0 0.0
2019-Jun-11 14:00N 49°17' W 000°15'0 0.0
2019-Jun-11 13:30N 49°17' W 000°15'3 6.1
2019-Jun-11 13:01N 49°20' W 000°13'1 2.3
2019-Jun-11 12:31N 49°21' W 000°14'1019.6
2019-Jun-11 12:01N 49°30' W 000°21'1020.2
2019-Jun-11 11:30N 49°39' W 000°27'1020.5
2019-Jun-11 11:00N 49°49' W 000°31'1020.2
2019-Jun-11 10:30N 49°59' W 000°36'1020.1
2019-Jun-11 10:00N 50°08' W 000°41'1320.3
2019-Jun-11 09:23N 50°20' W 000°48'920.5
2019-Jun-11 08:57N 50°28' W 000°53'818.6
2019-Jun-11 08:30N 50°36' W 000°57'917.9
2019-Jun-11 08:00N 50°44' W 001°04'5 9.4
2019-Jun-11 07:30N 50°49' W 001°06'0 0.0
2019-Jun-11 07:00N 50°49' W 001°06'0 0.0
2019-Jun-11 06:30N 50°49' W 001°06'0 0.0
2019-Jun-11 06:00N 50°49' W 001°06'0 0.2
2019-Jun-11 05:30N 50°49' W 001°06'510.1
2019-Jun-11 05:00N 50°44' W 001°04'816.2
2019-Jun-11 04:30N 50°37' W 000°58'815.5
2019-Jun-11 04:00N 50°29' W 000°53'815.1
2019-Jun-11 03:30N 50°22' W 000°48'1113.6
2019-Jun-11 02:40N 50°12' W 000°42'211.1
2019-Jun-11 02:28N 50°10' W 000°41'510.9
2019-Jun-11 02:00N 50°05' W 000°38'510.8
2019-Jun-11 01:30N 49°60' W 000°35'510.9
2019-Jun-11 01:00N 49°55' W 000°33'510.9
2019-Jun-11 00:30N 49°50' W 000°31'611.0
2019-Jun-11 00:00N 49°44' W 000°28'611.3
2019-Jun-10 23:30N 49°39' W 000°26'611.4
2019-Jun-10 23:00N 49°34' W 000°21'611.8
2019-Jun-10 22:30N 49°28' W 000°19'612.0
2019-Jun-10 22:00N 49°23' W 000°16'510.4
2019-Jun-10 21:30N 49°17' W 000°15'0 0.2
2019-Jun-10 21:00N 49°17' W 000°15'0 0.0
2019-Jun-10 20:30N 49°17' W 000°15'0 0.0
2019-Jun-10 20:00N 49°17' W 000°15'0 0.0
2019-Jun-10 19:30N 49°17' W 000°15'3 5.7
2019-Jun-10 19:00N 49°20' W 000°14'918.3
2019-Jun-10 18:30N 49°29' W 000°19'918.5
2019-Jun-10 18:00N 49°37' W 000°24'918.6
2019-Jun-10 17:30N 49°46' W 000°30'918.9
2019-Jun-10 17:00N 49°55' W 000°36'1020.5
2019-Jun-10 16:30N 50°05' W 000°40'1620.8
2019-Jun-10 15:45N 50°20' W 000°46'521.1
2019-Jun-10 15:30N 50°24' W 000°49'1020.8
2019-Jun-10 15:00N 50°34' W 000°56'918.7
2019-Jun-10 14:30N 50°43' W 001°02'713.5
2019-Jun-10 14:01N 50°49' W 001°07'1 1.2
2019-Jun-10 13:31N 50°49' W 001°06'0 0.0
2019-Jun-10 13:01N 50°49' W 001°06'0 0.0
2019-Jun-10 12:31N 50°49' W 001°06'2 4.2
2019-Jun-10 12:00N 50°47' W 001°06'714.7
2019-Jun-10 11:30N 50°41' W 000°59'918.2
2019-Jun-10 11:00N 50°32' W 000°56'918.7
2019-Jun-10 10:30N 50°23' W 000°51'1119.2
2019-Jun-10 09:56N 50°13' W 000°43'819.3
2019-Jun-10 09:30N 50°06' W 000°38'1019.5
2019-Jun-10 09:00N 49°56' W 000°33'1019.4
2019-Jun-10 08:30N 49°47' W 000°30'1019.5
2019-Jun-10 08:00N 49°38' W 000°25'1021.0
2019-Jun-10 07:31N 49°28' W 000°19'1019.6
2019-Jun-10 07:00N 49°19' W 000°15'1 2.8
2019-Jun-10 06:30N 49°17' W 000°15'0 0.0
2019-Jun-10 06:01N 49°17' W 000°15'0 0.0
2019-Jun-10 05:30N 49°17' W 000°15'0 0.0
2019-Jun-10 05:01N 49°17' W 000°15'0 0.2
2019-Jun-10 04:30N 49°17' W 000°15'714.7
2019-Jun-10 04:01N 49°25' W 000°16'612.3
2019-Jun-10 03:30N 49°30' W 000°21'612.2
2019-Jun-10 03:00N 49°36' W 000°24'816.4
2019-Jun-10 02:31N 49°43' W 000°29'917.1
2019-Jun-10 02:00N 49°52' W 000°32'917.4
2019-Jun-10 01:30N 49°60' W 000°37'917.4
2019-Jun-10 01:00N 50°08' W 000°42'816.5
2019-Jun-10 00:30N 50°16' W 000°45'816.7
2019-Jun-10 00:00N 50°24' W 000°49'917.2
2019-Jun-09 23:30N 50°32' W 000°54'714.1
2019-Jun-09 23:01N 50°38' W 000°59'713.5
2019-Jun-09 22:30N 50°44' W 001°04'5 9.5
2019-Jun-09 22:00N 50°49' W 001°06'0 0.0
2019-Jun-09 21:30N 50°49' W 001°06'0 0.0
2019-Jun-09 21:00N 50°49' W 001°06'0 0.0
2019-Jun-09 20:30N 50°49' W 001°06'0 0.9
2019-Jun-09 20:00N 50°49' W 001°07'611.1
2019-Jun-09 19:30N 50°44' W 001°03'917.2
2019-Jun-09 19:00N 50°36' W 000°57'918.8
2019-Jun-09 18:31N 50°27' W 000°53'918.5
2019-Jun-09 18:00N 50°18' W 000°49'1020.1
2019-Jun-09 17:30N 50°09' W 000°43'1121.1
2019-Jun-09 17:00N 49°59' W 000°36'1020.9
2019-Jun-09 16:31N 49°49' W 000°31'1020.5
2019-Jun-09 16:00N 49°39' W 000°26'1020.2
2019-Jun-09 15:30N 49°30' W 000°19'1019.9
2019-Jun-09 15:01N 49°21' W 000°15'4 7.0
2019-Jun-09 14:30N 49°17' W 000°15'0 0.0
2019-Jun-09 14:00N 49°17' W 000°15'0 0.0
2019-Jun-09 13:30N 49°17' W 000°15'0 0.0
2019-Jun-09 13:00N 49°17' W 000°15'3 6.2
2019-Jun-09 12:30N 49°20' W 000°14'1019.6
2019-Jun-09 12:00N 49°30' W 000°19'917.8
2019-Jun-09 11:30N 49°38' W 000°25'918.9
2019-Jun-09 11:00N 49°47' W 000°29'1020.2
2019-Jun-09 10:30N 49°56' W 000°35'1020.8
2019-Jun-09 10:00N 50°06' W 000°41'1121.0
2019-Jun-09 09:30N 50°16' W 000°47'1121.0
2019-Jun-09 09:00N 50°26' W 000°51'1020.3
2019-Jun-09 08:30N 50°35' W 000°57'918.0
2019-Jun-09 08:00N 50°44' W 001°03'611.0
2019-Jun-09 07:30N 50°49' W 001°06'0 0.2
2019-Jun-09 07:01N 50°49' W 001°06'0 0.0
2019-Jun-09 06:30N 50°49' W 001°06'0 0.0
2019-Jun-09 06:01N 50°49' W 001°06'1 1.6
2019-Jun-09 05:30N 50°48' W 001°07'611.8
2019-Jun-09 05:00N 50°43' W 001°03'1414.3
2019-Jun-09 04:00N 50°29' W 000°56'612.2
2019-Jun-09 03:30N 50°23' W 000°53'814.4
2019-Jun-09 02:55N 50°17' W 000°46'614.6
2019-Jun-09 02:30N 50°11' W 000°43'714.5
2019-Jun-09 02:00N 50°04' W 000°40'714.1
2019-Jun-09 01:30N 49°57' W 000°36'714.2
2019-Jun-09 01:01N 49°51' W 000°32'714.2
2019-Jun-09 00:30N 49°44' W 000°28'714.3
2019-Jun-09 00:01N 49°38' W 000°24'715.0
2019-Jun-08 23:30N 49°31' W 000°19'815.0
2019-Jun-08 23:00N 49°23' W 000°16'612.2
2019-Jun-08 22:30N 49°17' W 000°15'0 0.2
2019-Jun-08 22:00N 49°17' W 000°15'0 0.0
2019-Jun-08 21:30N 49°17' W 000°15'0 0.0
2019-Jun-08 21:00N 49°17' W 000°15'0 0.2
2019-Jun-08 20:30N 49°17' W 000°15'815.4
2019-Jun-08 20:00N 49°25' W 000°17'1020.1
2019-Jun-08 19:31N 49°34' W 000°23'1019.8
2019-Jun-08 19:01N 49°43' W 000°28'1019.6
2019-Jun-08 18:31N 49°52' W 000°34'1019.5
2019-Jun-08 18:01N 50°02' W 000°39'1019.7
2019-Jun-08 17:29N 50°12' W 000°43'1319.0
2019-Jun-08 16:49N 50°23' W 000°50'617.7
2019-Jun-08 16:30N 50°29' W 000°53'917.3
2019-Jun-08 16:00N 50°37' W 000°58'918.2
2019-Jun-08 15:31N 50°45' W 001°05'4 8.2
2019-Jun-08 15:00N 50°49' W 001°06'0 0.0
2019-Jun-08 14:30N 50°49' W 001°06'0 0.0
2019-Jun-08 14:00N 50°49' W 001°06'0 1.0
2019-Jun-08 13:30N 50°49' W 001°07'714.2
2019-Jun-08 13:01N 50°42' W 001°02'1019.1
2019-Jun-08 12:30N 50°34' W 000°55'918.3
2019-Jun-08 12:00N 50°25' W 000°49'1018.4
2019-Jun-08 11:28N 50°16' W 000°43'818.1
2019-Jun-08 11:00N 50°09' W 000°38'918.0
2019-Jun-08 10:30N 50°00' W 000°32'713.2
2019-Jun-08 10:01N 49°54' W 000°30'2 3.3
2019-Jun-08 09:31N 49°54' W 000°32'612.0
2019-Jun-08 09:00N 49°48' W 000°30'1019.6
2019-Jun-08 08:30N 49°39' W 000°25'1019.8
2019-Jun-08 08:00N 49°29' W 000°19'917.1
2019-Jun-08 07:30N 49°21' W 000°15'4 7.7
2019-Jun-08 07:00N 49°17' W 000°15'0 0.0
2019-Jun-08 06:31N 49°17' W 000°15'0 0.0
2019-Jun-08 06:01N 49°17' W 000°15'0 0.0
2019-Jun-08 05:31N 49°17' W 000°15'0 0.0
2019-Jun-08 05:00N 49°17' W 000°15'0 0.4
2019-Jun-08 04:31N 49°18' W 000°15'714.5
2019-Jun-08 04:00N 49°25' W 000°16'817.0
2019-Jun-08 03:30N 49°33' W 000°20'917.2
2019-Jun-08 03:00N 49°41' W 000°24'917.4
2019-Jun-08 02:30N 49°49' W 000°30'917.5
2019-Jun-08 02:00N 49°57' W 000°36'917.8
2019-Jun-08 01:30N 50°06' W 000°39'1516.4
2019-Jun-08 00:35N 50°20' W 000°46'215.4
2019-Jun-08 00:28N 50°22' W 000°47'816.1
2019-Jun-08 00:00N 50°28' W 000°52'816.0
2019-Jun-07 23:30N 50°36' W 000°57'714.4
2019-Jun-07 23:00N 50°43' W 000°59'713.3
2019-Jun-07 22:30N 50°48' W 001°07'1 2.5
2019-Jun-07 22:00N 50°49' W 001°06'0 0.0
2019-Jun-07 21:30N 50°49' W 001°06'0 0.0
2019-Jun-07 21:00N 50°49' W 001°06'0 0.0
2019-Jun-07 20:30N 50°49' W 001°06'2 3.7
2019-Jun-07 20:00N 50°47' W 001°06'815.6
2019-Jun-07 19:30N 50°41' W 000°58'1019.5
2019-Jun-07 19:00N 50°31' W 000°55'1020.3
2019-Jun-07 18:30N 50°22' W 000°50'1020.8
2019-Jun-07 18:00N 50°12' W 000°45'1121.5
2019-Jun-07 17:30N 50°02' W 000°39'1121.9
2019-Jun-07 17:00N 49°52' W 000°33'1121.8
2019-Jun-07 16:31N 49°42' W 000°27'1121.6
2019-Jun-07 16:01N 49°32' W 000°21'1121.5
2019-Jun-07 15:31N 49°22' W 000°15'4 8.4
2019-Jun-07 15:00N 49°17' W 000°15'0 0.0
2019-Jun-07 14:30N 49°17' W 000°15'0 0.0
2019-Jun-07 14:00N 49°17' W 000°15'0 0.0
2019-Jun-07 13:30N 49°17' W 000°15'0 0.0
2019-Jun-07 13:01N 49°17' W 000°15'1 1.2
2019-Jun-07 12:30N 49°18' W 000°15'918.9
2019-Jun-07 12:00N 49°27' W 000°17'1019.9
2019-Jun-07 11:30N 49°37' W 000°22'1019.9
2019-Jun-07 11:00N 49°46' W 000°27'1020.6
2019-Jun-07 10:30N 49°56' W 000°33'1121.1
2019-Jun-07 10:00N 50°05' W 000°39'1120.9
2019-Jun-07 09:29N 50°15' W 000°46'1020.3
2019-Jun-07 09:00N 50°24' W 000°52'1020.1
2019-Jun-07 08:30N 50°34' W 000°57'918.2
2019-Jun-07 08:01N 50°43' W 000°59'714.5
2019-Jun-07 07:31N 50°48' W 001°07'1 1.7
2019-Jun-07 07:01N 50°49' W 001°06'0 0.0
2019-Jun-07 06:31N 50°49' W 001°06'0 0.0
2019-Jun-07 06:01N 50°49' W 001°06'1 1.7
2019-Jun-07 05:31N 50°48' W 001°07'611.7
2019-Jun-07 05:00N 50°43' W 001°02'815.2
2019-Jun-07 04:30N 50°36' W 000°57'816.7
2019-Jun-07 04:00N 50°28' W 000°53'815.9
2019-Jun-07 03:30N 50°21' W 000°48'816.2
2019-Jun-07 03:00N 50°13' W 000°46'815.6
2019-Jun-07 02:30N 50°06' W 000°42'612.4
2019-Jun-07 02:01N 49°60' W 000°38'612.2
2019-Jun-07 01:30N 49°54' W 000°35'611.9
2019-Jun-07 01:00N 49°49' W 000°31'611.7
2019-Jun-07 00:30N 49°43' W 000°28'611.7
2019-Jun-07 00:00N 49°38' W 000°24'611.7
2019-Jun-06 23:30N 49°33' W 000°20'611.7
2019-Jun-06 23:00N 49°27' W 000°17'611.6
2019-Jun-06 22:31N 49°22' W 000°15'4 8.4
2019-Jun-06 22:00N 49°17' W 000°15'0 0.0
2019-Jun-06 21:30N 49°17' W 000°15'0 0.0
2019-Jun-06 21:01N 49°17' W 000°15'0 0.0
2019-Jun-06 20:31N 49°17' W 000°15'0 0.0
2019-Jun-06 20:00N 49°17' W 000°15'0 0.0
2019-Jun-06 19:31N 49°17' W 000°15'2 4.3
2019-Jun-06 19:01N 49°19' W 000°14'917.7
2019-Jun-06 18:30N 49°28' W 000°18'918.7
2019-Jun-06 18:01N 49°37' W 000°23'918.5
2019-Jun-06 17:31N 49°45' W 000°28'918.2
2019-Jun-06 17:01N 49°54' W 000°33'918.0
2019-Jun-06 16:30N 50°02' W 000°38'918.1
2019-Jun-06 16:01N 50°11' W 000°43'918.3
2019-Jun-06 15:30N 50°19' W 000°48'1020.1
2019-Jun-06 15:00N 50°29' W 000°53'1019.8
2019-Jun-06 14:30N 50°38' W 000°59'918.0
2019-Jun-06 14:01N 50°46' W 001°06'3 5.3
2019-Jun-06 13:30N 50°49' W 001°06'0 0.0
2019-Jun-06 13:01N 50°49' W 001°06'0 0.0
2019-Jun-06 12:30N 50°49' W 001°06'0 0.1
2019-Jun-06 12:01N 50°49' W 001°06'510.8
2019-Jun-06 11:30N 50°44' W 001°03'1020.1
2019-Jun-06 11:00N 50°34' W 000°56'1120.3
2019-Jun-06 10:29N 50°25' W 000°51'1020.3
2019-Jun-06 10:00N 50°15' W 000°46'1020.0
2019-Jun-06 09:30N 50°06' W 000°41'1019.7
2019-Jun-06 09:00N 49°56' W 000°37'1019.5
2019-Jun-06 08:30N 49°47' W 000°33'1019.5
2019-Jun-06 08:00N 49°38' W 000°26'1020.1
2019-Jun-06 07:30N 49°29' W 000°20'1019.7
2019-Jun-06 07:00N 49°20' W 000°14'2 4.9
2019-Jun-06 06:30N 49°17' W 000°15'0 0.0
2019-Jun-06 06:00N 49°17' W 000°15'0 0.0
2019-Jun-06 05:30N 49°17' W 000°15'0 0.0
2019-Jun-06 05:00N 49°17' W 000°15'0 0.1
2019-Jun-06 04:30N 49°17' W 000°15'713.9
2019-Jun-06 04:01N 49°24' W 000°16'815.3
2019-Jun-06 03:31N 49°31' W 000°23'714.8
2019-Jun-06 03:00N 49°37' W 000°29'510.7
2019-Jun-06 02:30N 49°42' W 000°30'510.7
2019-Jun-06 02:00N 49°48' W 000°31'510.8
2019-Jun-06 01:30N 49°53' W 000°33'611.1
2019-Jun-06 01:00N 49°58' W 000°36'  

Dump ship's entire track history